• Join FlightAware (Why Join?)
  • Login
  • US Flag 
03:35AM EDT


 

Airport Tracker/Info


-or-


 

Live Flight TrackerFlight Track Log ✈ EJA720 ✈ 02-May-2013 ✈ KAFJ - KCLE

Flight Track Log - Related Links

Times and Time Zones

All times are in EDT time to prevent confusion due to time zone crossing. See the EJA720 flight status page for this flight to view local times or setup timezone preferences in your user account.

Time Position Orientation Groundspeed Altitude Reporting Facility
EDT Latitude Longitude Course Direction KTS MPH feet Rate Location/Type
11:55AM 40.1856 -80.2814 308° West 232 267 5,000  Level Cleveland Center
11:56AM 40.2275 -80.3628 304° West 247 284 12,000 4,200 Climbing Cleveland Center
11:57AM 40.2797 -80.4714 302° West 290 334 13,400 1,020 Climbing Cleveland Center
11:58AM 40.3339 -80.5803 303° West 332 382 14,100 300 Climbing Cleveland Center
11:59AM 40.3903 -80.6975 302° West 365 420 14,100  Level Cleveland Center
12:00PM 40.3534 -80.7056 308° West  Level FlightAware Approximate
12:00PM 40.4483 -80.8178 302° West 384 442 14,100  Level Cleveland Center
12:01PM 40.5086 -80.9381 303° West 389 448 14,100  Level Cleveland Center
12:02PM 40.5706 -81.0506 306° West 389 448 14,100 -60 Level Cleveland Center
12:03PM 40.6369 -81.1631 308° West 389 448 14,000  Descending Cleveland Center
12:04PM 40.7031 -81.2706 309° West 389 448 14,100 60 Climbing Cleveland Center
12:05PM 40.7319 -81.3228 306° West 385 443 14,100  Level Cleveland Center
12:05PM 40.7586 -81.3725 305° West 385 443 14,100 -420 Level Cleveland Center
12:06PM 40.8161 -81.4692 308° West 387 445 13,600 -720 Descending Cleveland Center
12:06PM 40.8286 -81.4831 320° Northwest 389 448 13,300 -2,100 Descending Cleveland Center
12:07PM 40.8758 -81.5689 306° West 381 438 11,700 -2,040 Descending Cleveland Center
12:07PM 40.8925 -81.5911 315° West 389 448 11,300 -1,620 Descending Cleveland Center
12:08PM 40.9417 -81.6772 307° West 365 420 10,100 -1,200 Descending Cleveland Center
12:08PM 40.9603 -81.6939 326° Northwest 384 442 10,100  Level Cleveland Center
12:09PM 41.0475 -81.7283 343° North 359 413 10,100  Level Cleveland Center
12:10PM 41.1642 -81.7250 North 349 402 10,100 -120 Level Cleveland Center
12:11PM 41.2539 -81.7319 357° North 359 413 9,900 -960 Descending Cleveland Center
12:12PM 41.3372 -81.7281 North 285 328 8,300 -1,860 Descending Cleveland Center
12:13PM 41.4064 -81.6878 24° Northeast 284 327 6,400 -2,040 Descending Cleveland Center
12:14PM 41.4611 -81.6414 32° Northeast 285 328 4,600 -1,860 Descending Cleveland Center
12:15PM 41.5022 -81.6978 314° West 227 261 3,100 -1,080 Descending Cleveland Center
12:16PM 41.4703 -81.7525 232° Southwest 196 226 2,600 -720 Descending Cleveland Center
12:17PM 41.4386 -81.8047 231° Southwest 140 161 1,600 -900 Descending Cleveland Center